Time;durP1;ratioP1;P1;durP2;ratioP2;P2;SDS_P1;SDS_P2;PMS_P1;PMS_P2;Temp;Humidity;BMP_temperature;BMP_pressure;BME280_temperature;BME280_humidity;BME280_pressure;Samples;Min_cycle;Max_cycle;Signal;HPM_P1;HPM_P2
2023/03/02 00:01:30;;;;;;;31.47;16.73;;;-1.10;99.90;-2.20;101325;;;;579785;244;24089;-75
2023/03/02 00:03:58;;;;;;;25.13;16.60;;;-1.10;99.90;-2.20;101317;;;;577560;244;24081;-77
2023/03/02 00:06:26;;;;;;;26.17;16.07;;;-1.10;99.90;-2.20;101319;;;;579834;244;24103;-78
2023/03/02 00:08:54;;;;;;;27.50;17.23;;;-1.10;99.90;-2.20;101315;;;;577664;244;24075;-78
2023/03/02 00:11:22;;;;;;;31.05;19.85;;;-1.10;99.90;-2.20;101314;;;;572735;244;35258;-76
2023/03/02 00:13:50;;;;;;;27.67;15.80;;;-1.10;99.90;-2.30;101322;;;;579943;244;24045;-76
2023/03/02 00:16:18;;;;;;;27.17;16.43;;;-1.10;99.90;-2.30;101329;;;;579949;244;24099;-73
2023/03/02 00:18:46;;;;;;;23.37;15.93;;;-1.20;99.90;-2.30;101327;;;;577515;244;25113;-79
2023/03/02 00:21:14;;;;;;;25.33;15.10;;;-1.20;99.90;-2.30;101336;;;;579653;244;24088;-74
2023/03/02 00:23:43;;;;;;;26.60;14.97;;;-1.20;99.90;-2.30;101332;;;;579610;244;24057;-78
2023/03/02 00:26:11;;;;;;;29.93;16.50;;;-1.20;99.90;-2.30;101342;;;;579613;244;24040;-76
2023/03/02 00:28:40;;;;;;;28.17;15.73;;;-1.20;99.90;-2.30;101338;;;;579624;244;24053;-79
2023/03/02 00:31:08;;;;;;;32.37;16.20;;;-1.20;99.90;-2.30;101332;;;;579703;244;24080;-76
2023/03/02 00:33:36;;;;;;;31.17;17.03;;;-1.20;99.90;-2.30;101326;;;;579658;244;24061;-76
2023/03/02 00:36:04;;;;;;;23.47;15.37;;;-1.10;99.90;-2.30;101320;;;;579431;244;24132;-79
2023/03/02 00:38:32;;;;;;;25.47;15.20;;;-1.10;99.90;-2.20;101311;;;;579328;244;24122;-78
2023/03/02 00:40:59;;;;;;;25.40;16.57;;;-1.10;99.90;-2.20;101318;;;;579678;244;24048;-75
2023/03/02 00:43:27;;;;;;;29.10;13.87;;;-1.10;99.90;-2.20;101320;;;;579352;244;24055;-77
2023/03/02 00:45:55;;;;;;;21.77;13.43;;;-1.10;99.90;-2.30;101325;;;;579226;244;24137;-74
2023/03/02 00:48:23;;;;;;;24.83;12.73;;;-1.10;99.90;-2.30;101315;;;;579372;244;24063;-77
2023/03/02 00:50:51;;;;;;;20.60;12.27;;;-1.20;99.90;-2.30;101313;;;;579321;244;25096;-76
2023/03/02 00:53:19;;;;;;;22.23;12.17;;;-1.20;99.90;-2.20;101315;;;;579795;243;24074;-79
2023/03/02 00:55:59;;;;;;;22.60;13.83;;;-1.10;99.90;-2.30;101321;;;;581049;243;24064;-77
2023/03/02 00:58:24;;;;;;;21.97;14.43;;;-1.20;99.90;-2.30;101323;;;;580207;243;24071;-77
2023/03/02 01:00:52;;;;;;;20.67;12.57;;;-1.20;99.90;-2.30;101306;;;;580082;243;24072;-79
2023/03/02 01:03:20;;;;;;;23.43;13.13;;;-1.20;99.90;-2.30;101316;;;;579869;244;24084;-77
2023/03/02 01:05:48;;;;;;;18.70;11.83;;;-1.20;99.90;-2.30;101309;;;;579889;244;24068;-77
2023/03/02 01:08:16;;;;;;;21.77;12.80;;;-1.20;99.90;-2.30;101302;;;;577523;244;24059;-77
2023/03/02 01:10:44;;;;;;;25.13;11.97;;;-1.20;99.90;-2.30;101305;;;;579923;244;24056;-78
2023/03/02 01:13:13;;;;;;;24.47;13.63;;;-1.20;99.90;-2.30;101311;;;;579546;244;24060;-76
2023/03/02 01:15:41;;;;;;;26.40;13.87;;;-1.20;99.90;-2.20;101309;;;;579524;244;24059;-78
2023/03/02 01:18:09;;;;;;;25.13;13.33;;;-1.10;99.90;-2.20;101305;;;;579636;244;24051;-76
2023/03/02 01:20:37;;;;;;;27.17;14.30;;;-1.10;99.90;-2.20;101306;;;;579506;244;24058;-79
2023/03/02 01:23:06;;;;;;;18.87;11.47;;;-1.10;99.90;-2.20;101301;;;;579635;244;24067;-74
2023/03/02 01:25:37;;;;;;;21.20;11.87;;;-1.10;99.90;-2.20;101302;;;;579593;244;24060;-78
2023/03/02 01:28:03;;;;;;;19.93;11.47;;;-1.10;99.90;-2.20;101306;;;;579666;244;24060;-79
2023/03/02 01:30:32;;;;;;;15.67;11.17;;;-1.10;99.90;-2.20;101300;;;;579365;244;24127;-77
2023/03/02 01:33:00;;;;;;;13.73;9.83;;;-1.10;99.90;-2.20;101304;;;;579176;244;24125;-78
2023/03/02 01:35:28;;;;;;;18.17;11.17;;;-1.10;99.90;-2.20;101297;;;;579348;244;24069;-77
2023/03/02 01:37:56;;;;;;;16.00;10.47;;;-1.10;99.90;-2.30;101295;;;;579683;244;24040;-73
2023/03/02 01:40:24;;;;;;;19.07;10.93;;;-1.20;99.90;-2.30;101296;;;;579726;244;24059;-79
2023/03/02 01:42:52;;;;;;;18.37;9.63;;;-1.20;99.90;-2.30;101297;;;;577532;244;24049;-76
2023/03/02 01:45:38;;;;;;;16.33;9.73;;;-1.10;99.90;-2.30;101291;;;;577070;244;24113;-78
2023/03/02 01:48:06;;;;;;;18.50;9.40;;;-1.20;99.90;-2.30;101281;;;;576791;244;25113;-76
2023/03/02 01:50:34;;;;;;;18.80;9.57;;;-1.20;99.90;-2.30;101281;;;;577364;244;24071;-76
2023/03/02 01:53:02;;;;;;;17.93;9.90;;;-1.20;99.90;-2.30;101276;;;;579660;244;24059;-77
2023/03/02 01:55:30;;;;;;;20.40;10.50;;;-1.20;99.90;-2.30;101280;;;;579671;244;24101;-77
2023/03/02 01:57:58;;;;;;;13.07;9.50;;;-1.20;99.90;-2.30;101284;;;;577081;244;24124;-79
2023/03/02 02:00:28;;;;;;;17.50;8.90;;;-1.20;99.90;-2.40;101282;;;;577025;244;24052;-78
2023/03/02 02:03:07;;;;;;;20.00;9.43;;;-1.20;99.90;-2.40;101278;;;;579323;244;24111;-76
2023/03/02 02:05:27;;;;;;;17.63;10.27;;;-1.30;99.90;-2.40;101281;;;;577033;243;24065;-77
2023/03/02 02:07:52;;;;;;;19.23;9.77;;;-1.30;99.90;-2.40;101278;;;;578117;243;24070;-78
2023/03/02 02:10:20;;;;;;;19.95;12.80;;;-1.30;99.90;-2.40;101278;;;;575228;243;35139;-73
2023/03/02 02:12:48;;;;;;;13.70;8.27;;;-1.30;99.90;-2.40;101271;;;;577863;243;24069;-75
2023/03/02 02:15:16;;;;;;;16.70;10.33;;;-1.30;99.90;-2.40;101270;;;;579998;244;24121;-74
2023/03/02 02:17:44;;;;;;;24.93;10.70;;;-1.30;99.90;-2.30;101273;;;;579792;244;24048;-73
2023/03/02 02:20:33;;;;;;;16.67;9.63;;;-1.30;99.90;-2.30;101258;;;;579940;244;24060;-76
2023/03/02 02:23:26;;;;;;;19.73;11.20;;;-1.20;99.90;-2.30;101265;;;;572708;244;24083;-77
2023/03/02 02:26:01;;;;;;;16.27;11.00;;;-1.20;99.90;-2.30;101270;;;;579545;244;24045;-75
2023/03/02 02:28:56;;;;;;;17.00;12.47;;;-1.30;99.90;-2.30;101268;;;;579242;244;24060;-74
2023/03/02 02:31:29;;;;;;;25.58;14.77;;;-1.20;99.90;-2.30;101270;;;;574827;244;35182;-77
2023/03/02 02:33:57;;;;;;;13.80;6.37;;;-1.30;99.90;-2.30;101273;;;;575260;244;24053;-72
2023/03/02 02:36:25;;;;;;;23.23;12.73;;;-1.20;99.90;-2.30;101272;;;;577415;244;24067;-74
2023/03/02 02:38:53;;;;;;;20.50;13.40;;;-1.20;99.90;-2.30;101268;;;;577234;244;24052;-76
2023/03/02 02:41:27;;;;;;;21.70;13.67;;;-1.20;99.90;-2.40;101268;;;;579897;244;24088;-75
2023/03/02 02:43:55;;;;;;;19.63;12.80;;;-1.20;99.90;-2.40;101272;;;;579775;244;24049;-76
2023/03/02 02:46:26;;;;;;;20.97;12.23;;;-1.30;99.90;-2.40;101261;;;;579820;244;24051;-75
2023/03/02 02:48:55;;;;;;;20.10;11.93;;;-1.30;99.90;-2.40;101261;;;;579364;244;24099;-78
2023/03/02 02:51:23;;;;;;;19.63;11.10;;;-1.30;99.90;-2.40;101256;;;;577047;244;24061;-74
2023/03/02 02:54:00;;;;;;;17.73;11.13;;;-1.40;99.90;-2.40;101252;;;;577236;244;24120;-77
2023/03/02 02:56:28;;;;;;;25.37;12.97;;;-1.30;99.90;-2.40;101258;;;;579539;244;24130;-77
2023/03/02 02:58:56;;;;;;;23.00;11.77;;;-1.40;99.90;-2.40;101255;;;;579279;244;24077;-79
2023/03/02 03:01:24;;;;;;;16.43;11.07;;;-1.30;99.90;-2.40;101257;;;;577296;244;24086;-77
2023/03/02 03:03:57;;;;;;;19.57;11.70;;;-1.30;99.90;-2.40;101260;;;;579829;243;24084;-78
2023/03/02 03:06:36;;;;;;;16.87;10.97;;;-1.30;99.90;-2.40;101255;;;;579559;244;24107;-78
2023/03/02 03:08:56;;;;;;;13.03;9.47;;;-1.40;99.90;-2.50;101251;;;;576732;244;24048;-76
2023/03/02 03:11:26;;;;;;;19.27;10.20;;;-1.40;99.90;-2.50;101248;;;;577500;244;24064;-74
2023/03/02 03:14:03;;;;;;;14.17;8.90;;;-1.40;99.90;-2.50;101246;;;;579671;244;24107;-79
2023/03/02 03:16:31;;;;;;;13.00;7.90;;;-1.40;99.90;-2.40;101247;;;;579449;243;24054;-80
2023/03/02 03:18:59;;;;;;;13.50;8.30;;;-1.30;99.90;-2.40;101246;;;;578748;243;24036;-79
2023/03/02 03:21:27;;;;;;;11.27;7.43;;;-1.40;99.90;-2.50;101241;;;;578337;243;24048;-78
2023/03/02 03:23:54;;;;;;;13.90;8.30;;;-1.40;99.90;-2.50;101247;;;;580435;243;24059;-78
2023/03/02 03:26:22;;;;;;;9.27;7.43;;;-1.40;99.90;-2.50;101240;;;;580351;244;24096;-78
2023/03/02 03:28:50;;;;;;;11.17;6.57;;;-1.40;99.90;-2.60;101235;;;;580120;244;24115;-74
2023/03/02 03:31:18;;;;;;;10.03;6.87;;;-1.40;99.90;-2.60;101242;;;;580175;244;24062;-78
2023/03/02 03:33:48;;;;;;;11.93;6.93;;;-1.50;99.90;-2.60;101238;;;;580203;244;24061;-78
2023/03/02 03:36:14;;;;;;;9.87;6.83;;;-1.50;99.90;-2.60;101244;;;;579883;244;24052;-76
2023/03/02 03:38:42;;;;;;;12.80;7.07;;;-1.50;99.90;-2.60;101236;;;;577728;244;24105;-72
2023/03/02 03:41:11;;;;;;;14.50;8.45;;;-1.40;99.90;-2.50;101235;;;;574864;244;35152;-73
2023/03/02 03:43:39;;;;;;;9.70;5.43;;;-1.40;99.90;-2.50;101239;;;;579382;244;25097;-78
2023/03/02 03:46:06;;;;;;;11.73;6.90;;;-1.40;99.90;-2.50;101236;;;;579585;244;24040;-77
2023/03/02 03:48:34;;;;;;;14.65;8.52;;;-1.40;99.90;-2.50;101231;;;;574488;244;35162;-76
2023/03/02 03:51:02;;;;;;;8.97;3.70;;;-1.40;99.90;-2.50;101237;;;;579667;244;24080;-79
2023/03/02 03:53:30;;;;;;;11.60;7.30;;;-1.30;99.90;-2.40;101242;;;;579357;244;24061;-79
2023/03/02 03:55:58;;;;;;;12.30;7.57;;;-1.30;99.90;-2.40;101233;;;;579206;244;24116;-80
2023/03/02 03:58:26;;;;;;;12.47;7.63;;;-1.30;99.90;-2.40;101230;;;;579316;244;24204;-78
2023/03/02 04:00:54;;;;;;;12.37;7.60;;;-1.30;99.90;-2.40;101223;;;;579683;244;24050;-80
2023/03/02 04:03:25;;;;;;;13.40;7.57;;;-1.30;99.90;-2.50;101225;;;;579697;244;24084;-79
2023/03/02 04:05:51;;;;;;;12.83;8.37;;;-1.40;99.90;-2.50;101217;;;;577189;244;24116;-78
2023/03/02 04:08:20;;;;;;;15.53;8.10;;;-1.40;99.90;-2.50;101227;;;;577454;244;24062;-76
2023/03/02 04:10:49;;;;;;;16.07;8.20;;;-1.40;99.90;-2.50;101230;;;;579691;244;24054;-78
2023/03/02 04:13:17;;;;;;;11.53;7.53;;;-1.50;99.90;-2.60;101220;;;;579688;244;24115;-77
2023/03/02 04:15:45;;;;;;;16.87;8.07;;;-1.50;99.90;-2.60;101220;;;;579687;244;24048;-76
2023/03/02 04:18:13;;;;;;;13.93;8.40;;;-1.50;99.90;-2.60;101223;;;;579610;244;24088;-75
2023/03/02 04:20:41;;;;;;;15.50;8.60;;;-1.50;99.90;-2.70;101216;;;;579675;244;24056;-79
2023/03/02 04:23:09;;;;;;;15.50;8.30;;;-1.50;99.90;-2.70;101211;;;;579625;244;26344;-76
2023/03/02 04:25:37;;;;;;;18.13;9.83;;;-1.50;99.90;-2.70;101209;;;;579698;244;24052;-74
2023/03/02 04:28:05;;;;;;;12.70;8.13;;;-1.60;99.90;-2.80;101213;;;;580053;243;24053;-75
2023/03/02 04:30:33;;;;;;;15.13;7.63;;;-1.60;99.90;-2.80;101209;;;;578802;243;24116;-73
2023/03/02 04:33:01;;;;;;;13.47;8.73;;;-1.60;99.90;-2.70;101211;;;;580589;243;24042;-74
2023/03/02 04:35:29;;;;;;;17.47;8.97;;;-1.60;99.90;-2.70;101211;;;;580428;243;25091;-73
2023/03/02 04:37:57;;;;;;;14.87;8.63;;;-1.60;99.90;-2.60;101210;;;;580323;244;24047;-73
2023/03/02 04:40:25;;;;;;;16.70;9.30;;;-1.50;99.90;-2.60;101212;;;;580178;244;24086;-74
2023/03/02 04:42:52;;;;;;;18.37;9.10;;;-1.50;99.90;-2.60;101200;;;;580153;244;24125;-73
2023/03/02 04:45:20;;;;;;;17.85;10.40;;;-1.50;99.90;-2.70;101203;;;;574859;244;35103;-72
2023/03/02 04:47:48;;;;;;;11.60;6.40;;;-1.50;99.90;-2.70;101209;;;;579518;244;24047;-72
2023/03/02 04:50:16;;;;;;;14.67;8.87;;;-1.50;99.90;-2.70;101204;;;;579671;244;24078;-73
2023/03/02 04:52:44;;;;;;;14.37;8.83;;;-1.60;99.90;-2.70;101208;;;;579588;244;24062;-72
2023/03/02 04:55:21;;;;;;;11.53;7.43;;;-1.50;99.90;-2.70;101204;;;;579936;244;24045;-73
2023/03/02 04:57:49;;;;;;;14.40;7.87;;;-1.60;99.90;-2.70;101201;;;;579769;244;24068;-74
2023/03/02 05:00:19;;;;;;;10.73;7.53;;;-1.50;99.90;-2.70;101204;;;;579942;244;24058;-73
2023/03/02 05:02:45;;;;;;;10.73;6.37;;;-1.50;99.90;-2.70;101202;;;;579816;244;24074;-74
2023/03/02 05:05:13;;;;;;;10.13;6.63;;;-1.50;99.90;-2.70;101199;;;;579714;244;24060;-72
2023/03/02 05:07:41;;;;;;;13.50;6.90;;;-1.50;99.90;-2.70;101191;;;;579390;244;24062;-74
2023/03/02 05:10:09;;;;;;;14.57;7.67;;;-1.60;99.90;-2.70;101202;;;;579660;244;24055;-72
2023/03/02 05:13:23;;;;;;;17.53;7.03;;;-1.60;99.90;-2.80;101198;;;;579698;244;24060;-74
2023/03/02 05:15:06;;;;;;;12.67;7.43;;;-1.60;99.90;-2.70;101199;;;;576303;244;24070;-75
2023/03/02 05:17:34;;;;;;;12.43;8.00;;;-1.60;99.90;-2.70;101198;;;;579705;244;24104;-73
2023/03/02 05:20:05;;;;;;;13.33;7.80;;;-1.50;99.90;-2.60;101198;;;;579757;244;24033;-73
2023/03/02 05:22:30;;;;;;;12.73;7.27;;;-1.50;99.90;-2.60;101204;;;;579442;244;24067;-74
2023/03/02 05:24:58;;;;;;;13.53;7.70;;;-1.50;99.90;-2.60;101198;;;;579780;244;24067;-73
2023/03/02 05:27:26;;;;;;;12.83;8.23;;;-1.50;99.90;-2.60;101198;;;;579689;244;24102;-72
2023/03/02 05:29:54;;;;;;;11.53;7.13;;;-1.30;99.90;-2.60;101203;;;;579718;244;24104;-73
2023/03/02 05:32:22;;;;;;;14.93;7.17;;;-1.50;99.90;-2.60;101205;;;;579757;244;24051;-72
2023/03/02 05:34:50;;;;;;;11.57;7.37;;;-1.40;99.90;-2.60;101203;;;;579695;244;24058;-75
2023/03/02 05:37:18;;;;;;;16.00;7.10;;;-1.40;99.90;-2.50;101205;;;;579762;244;24040;-75
2023/03/02 05:39:46;;;;;;;12.43;7.40;;;-1.40;99.90;-2.50;101197;;;;580167;243;24054;-76
2023/03/02 05:42:17;;;;;;;12.93;7.07;;;-1.40;99.90;-2.50;101201;;;;581026;243;24063;-73
2023/03/02 05:44:42;;;;;;;15.27;8.83;;;-1.40;99.90;-2.50;101199;;;;580358;243;24103;-74
2023/03/02 05:47:10;;;;;;;18.93;8.53;;;-1.40;99.90;-2.40;101189;;;;580165;243;24099;-74
2023/03/02 05:49:38;;;;;;;14.57;8.87;;;-1.30;99.90;-2.40;101197;;;;580022;244;24036;-74
2023/03/02 05:52:06;;;;;;;13.70;8.83;;;-1.30;99.90;-2.40;101195;;;;579842;244;24072;-72
2023/03/02 05:54:33;;;;;;;16.17;8.90;;;-1.30;99.90;-2.30;101189;;;;580396;244;24037;-72
2023/03/02 05:57:01;;;;;;;16.17;10.07;;;-1.20;99.90;-2.30;101182;;;;580016;244;24087;-74
2023/03/02 05:59:29;;;;;;;22.87;10.50;;;-1.20;99.90;-2.30;101186;;;;580133;244;24049;-74
2023/03/02 06:01:58;;;;;;;16.93;10.53;;;-1.20;99.90;-2.20;101186;;;;579866;244;24060;-72
2023/03/02 06:04:25;;;;;;;19.17;11.27;;;-1.10;99.90;-2.20;101198;;;;579661;244;24094;-73
2023/03/02 06:06:53;;;;;;;19.57;11.63;;;-1.10;99.90;-2.20;101183;;;;577736;244;24105;-75
2023/03/02 06:09:21;;;;;;;17.23;10.50;;;-1.10;99.90;-2.10;101192;;;;580009;244;24046;-74
2023/03/02 06:11:52;;;;;;;19.20;10.30;;;-1.00;99.90;-2.10;101187;;;;579935;244;24047;-73
2023/03/02 06:14:18;;;;;;;19.40;10.23;;;-0.90;99.90;-2.00;101198;;;;579380;244;24110;-74
2023/03/02 06:16:47;;;;;;;13.83;8.87;;;-1.00;99.90;-2.00;101199;;;;579312;244;25151;-73
2023/03/02 06:19:13;;;;;;;12.43;7.70;;;-0.90;99.90;-1.90;101191;;;;579240;244;24056;-73
2023/03/02 06:21:42;;;;;;;10.17;7.00;;;-0.80;99.90;-1.90;101188;;;;579233;244;24130;-73
2023/03/02 06:24:10;;;;;;;12.67;8.00;;;-0.80;99.90;-1.80;101188;;;;579353;244;24080;-73
2023/03/02 06:26:38;;;;;;;13.63;7.10;;;-0.70;99.90;-1.80;101183;;;;579308;244;24059;-73
2023/03/02 06:29:07;;;;;;;10.40;7.53;;;-0.70;99.90;-1.70;101186;;;;579662;244;24083;-72
2023/03/02 06:31:35;;;;;;;14.33;8.13;;;-0.70;99.90;-1.70;101197;;;;579289;244;24041;-73
2023/03/02 06:34:02;;;;;;;16.53;8.57;;;-0.60;99.90;-1.60;101198;;;;579323;244;24125;-73
2023/03/02 06:36:30;;;;;;;16.80;8.30;;;-0.60;99.90;-1.60;101190;;;;579382;244;24107;-73
2023/03/02 06:38:58;;;;;;;14.80;8.20;;;-0.50;99.90;-1.50;101196;;;;579290;244;24058;-74
2023/03/02 06:41:26;;;;;;;11.63;8.20;;;-0.50;99.90;-1.50;101185;;;;579474;244;24079;-74
2023/03/02 06:43:54;;;;;;;15.43;8.97;;;-0.40;99.90;-1.40;101202;;;;579372;244;24041;-74
2023/03/02 06:46:22;;;;;;;16.03;8.97;;;-0.30;99.90;-1.30;101195;;;;579252;244;24071;-72
2023/03/02 06:48:50;;;;;;;14.93;9.37;;;-0.30;99.90;-1.20;101203;;;;579239;244;24089;-72
2023/03/02 06:51:18;;;;;;;12.50;7.93;;;-0.20;99.90;-1.10;101194;;;;579764;243;24090;-73
2023/03/02 06:53:46;;;;;;;14.10;7.87;;;-0.10;99.90;-0.90;101201;;;;578673;243;24078;-73
2023/03/02 06:56:14;;;;;;;11.30;4.93;;;0.10;99.90;0.30;101201;;;;580402;243;24040;-73
2023/03/02 06:58:42;;;;;;;10.27;4.47;;;1.00;99.90;2.70;101214;;;;577281;243;24075;-75
2023/03/02 07:01:09;;;;;;;8.43;4.30;;;3.00;99.90;5.10;101218;;;;576956;244;24062;-73
2023/03/02 07:03:37;;;;;;;6.57;4.33;;;5.20;99.90;7.30;101233;;;;580377;244;24089;-73
2023/03/02 07:06:05;;;;;;;4.87;3.67;;;7.30;99.90;8.70;101224;;;;577323;244;24060;-73
2023/03/02 07:08:36;;;;;;;5.83;4.03;;;8.90;99.90;10.00;101236;;;;580325;244;24084;-74
2023/03/02 07:11:09;;;;;;;8.40;5.17;;;11.90;99.90;11.60;101243;;;;580103;244;24093;-74
2023/03/02 07:13:37;;;;;;;7.30;5.40;;;11.80;99.90;12.90;101242;;;;579993;244;24052;-75
2023/03/02 07:16:16;;;;;;;7.53;5.77;;;13.40;99.90;14.40;101248;;;;579978;244;24045;-76
2023/03/02 07:18:45;;;;;;;12.03;6.00;;;14.80;99.90;15.70;101247;;;;577603;244;24068;-74
2023/03/02 07:21:12;;;;;;;6.97;5.47;;;16.10;99.90;16.70;101242;;;;579923;244;24037;-77
2023/03/02 07:23:40;;;;;;;6.70;5.50;;;17.20;97.40;17.60;101240;;;;579954;244;24045;-75
2023/03/02 07:26:08;;;;;;;6.83;5.00;;;18.20;91.50;18.50;101241;;;;579894;244;24037;-78
2023/03/02 07:28:38;;;;;;;6.33;5.07;;;19.10;76.90;19.00;101246;;;;579712;244;24040;-74
2023/03/02 07:31:04;;;;;;;5.73;4.77;;;19.60;73.40;19.50;101239;;;;577550;244;24051;-75
2023/03/02 07:33:32;;;;;;;7.43;4.83;;;20.10;69.40;20.10;101238;;;;577432;244;24055;-75
2023/03/02 07:36:03;;;;;;;4.93;4.20;;;20.60;65.30;20.70;101235;;;;579702;244;24041;-76
2023/03/02 07:38:29;;;;;;;4.87;4.23;;;21.30;58.90;20.70;101243;;;;579331;244;24083;-78
2023/03/02 07:40:56;;;;;;;5.40;4.20;;;21.30;58.90;21.00;101247;;;;579681;244;24060;-74
2023/03/02 07:43:26;;;;;;;7.27;5.43;;;21.50;57.00;21.20;101247;;;;579674;244;24055;-77
2023/03/02 07:45:52;;;;;;;5.53;5.00;;;21.70;56.30;21.90;101252;;;;579594;244;24041;-74
2023/03/02 07:48:22;;;;;;;5.53;4.50;;;22.20;55.20;21.90;101251;;;;577466;244;23062;-73
2023/03/02 07:50:48;;;;;;;6.07;4.50;;;22.40;53.80;22.30;101254;;;;579118;244;24111;-74
2023/03/02 07:53:16;;;;;;;5.37;4.80;;;22.60;53.20;22.70;101255;;;;577057;244;24106;-75
2023/03/02 07:55:44;;;;;;;5.20;4.70;;;23.20;52.50;22.90;101260;;;;579249;244;23175;-74
2023/03/02 07:58:13;;;;;;;7.37;5.33;;;23.50;50.30;23.00;101264;;;;579283;244;23078;-74
2023/03/02 08:00:41;;;;;;;6.50;5.13;;;24.00;49.70;23.60;101259;;;;579295;244;24102;-77
2023/03/02 08:03:10;;;;;;;6.27;5.20;;;24.10;48.90;23.60;101269;;;;579996;243;23098;-77
2023/03/02 08:05:38;;;;;;;8.33;5.47;;;24.10;48.60;23.80;101267;;;;580902;243;23097;-77
2023/03/02 08:08:06;;;;;;;5.87;5.27;;;24.30;48.80;24.20;101268;;;;580613;243;23155;-78
2023/03/02 08:10:34;;;;;;;8.33;5.63;;;24.70;47.90;24.70;101266;;;;580474;243;23136;-74
2023/03/02 08:13:02;;;;;;;10.40;5.57;;;25.20;46.60;24.90;101265;;;;578215;244;23088;-75
2023/03/02 08:15:30;;;;;;;6.33;5.70;;;25.40;46.20;25.10;101259;;;;580273;243;24111;-75
2023/03/02 08:17:57;;;;;;;8.13;5.53;;;25.70;45.40;25.10;101264;;;;580209;244;23075;-79
2023/03/02 08:20:25;;;;;;;6.60;5.53;;;25.70;45.20;25.10;101266;;;;580197;244;23077;-77
2023/03/02 08:22:54;;;;;;;8.27;5.50;;;26.10;44.80;25.50;101271;;;;579935;244;24042;-77
2023/03/02 08:25:23;;;;;;;8.43;6.07;;;26.40;43.90;25.90;101275;;;;579944;244;24060;-76
2023/03/02 08:27:51;;;;;;;7.27;6.50;;;26.20;44.10;25.50;101266;;;;579888;244;23058;-77
2023/03/02 08:30:19;;;;;;;7.33;6.63;;;26.20;43.40;25.40;101270;;;;579963;244;23046;-76
2023/03/02 08:32:47;;;;;;;8.45;6.97;;;26.00;44.30;25.50;101267;;;;574933;244;35127;-74
2023/03/02 08:35:16;;;;;;;7.73;6.93;;;26.10;43.50;25.60;101265;;;;579964;244;23059;-77
2023/03/02 08:37:43;;;;;;;8.00;6.90;;;26.30;43.40;25.70;101264;;;;579847;244;23104;-75
2023/03/02 08:40:11;;;;;;;6.07;5.40;;;26.30;44.00;26.10;101272;;;;579741;244;24098;-74
2023/03/02 08:42:39;;;;;;;9.10;6.70;;;26.70;43.20;26.40;101271;;;;579711;244;23083;-77
2023/03/02 08:45:10;;;;;;;7.93;6.30;;;27.00;42.60;26.80;101269;;;;579683;244;23066;-76
2023/03/02 08:47:38;;;;;;;11.18;6.53;;;27.50;42.40;27.40;101275;;;;579544;244;23080;-76
2023/03/02 08:50:03;;;;;;;8.95;6.40;;;28.10;41.70;27.80;101285;;;;579474;244;23062;-77
2023/03/02 08:52:34;;;;;;;10.65;6.47;;;28.70;41.40;28.50;101286;;;;588236;244;23078;-77
2023/03/02 08:55:02;;;;;;;6.85;6.18;;;29.30;40.10;28.60;101283;;;;579211;244;23142;-78
2023/03/02 08:57:30;;;;;;;6.25;5.65;;;29.70;39.80;28.40;101277;;;;579559;244;24070;-79
2023/03/02 08:59:58;;;;;;;6.50;5.62;;;29.70;39.50;28.30;101283;;;;579272;244;23065;-76
2023/03/02 09:02:25;;;;;;;9.00;6.35;;;29.50;39.60;28.50;101289;;;;579422;244;24083;-80
2023/03/02 09:04:54;;;;;;;7.95;6.55;;;29.60;39.70;28.80;101288;;;;574616;244;35153;-80
2023/03/02 09:07:21;;;;;;;6.40;5.43;;;29.90;39.00;28.70;101282;;;;579520;244;23062;-79
2023/03/02 09:09:50;;;;;;;8.00;5.25;;;30.20;38.80;29.00;101293;;;;579664;244;24132;-79
2023/03/02 09:12:19;;;;;;;9.40;5.53;;;30.60;38.70;29.30;101293;;;;579610;244;23047;-75
2023/03/02 09:14:47;;;;;;;7.75;6.07;;;30.50;38.60;29.50;101286;;;;580304;243;23109;-77
2023/03/02 09:17:16;;;;;;;7.37;5.68;;;30.90;38.10;29.40;101291;;;;578692;243;23109;-75
2023/03/02 09:19:42;;;;;;;9.43;5.90;;;30.90;38.10;29.40;101285;;;;580550;243;23131;-76
2023/03/02 09:22:10;;;;;;;6.65;5.70;;;30.90;37.70;29.90;101286;;;;580453;243;23058;-75
2023/03/02 09:24:38;;;;;;;6.07;5.45;;;31.20;37.20;29.40;101286;;;;589250;243;23118;-76
2023/03/02 09:27:06;;;;;;;5.47;4.97;;;31.10;37.50;29.00;101285;;;;580224;244;23071;-75
2023/03/02 09:29:34;;;;;;;7.80;6.40;;;30.80;37.50;28.60;101283;;;;580172;244;23132;-79
2023/03/02 09:32:02;;;;;;;8.55;5.87;;;30.40;37.80;28.20;101281;;;;580183;244;23069;-77
2023/03/02 09:34:30;;;;;;;6.80;6.00;;;29.80;38.10;27.80;101280;;;;577539;244;24152;-76
2023/03/02 09:36:59;;;;;;;7.97;6.37;;;28.70;39.10;27.00;101288;;;;579876;244;23059;-74
2023/03/02 09:39:27;;;;;;;6.75;6.05;;;28.60;38.90;25.00;101290;;;;579913;244;23058;-75
2023/03/02 09:42:10;;;;;;;8.17;5.90;;;27.30;40.10;23.50;101279;;;;579904;244;23050;-74
2023/03/02 09:45:02;;;;;;;6.33;5.23;;;25.80;41.30;22.40;101273;;;;577064;244;24320;-75
2023/03/02 09:47:45;;;;;;;7.50;6.70;;;24.40;43.10;21.20;101279;;;;579952;244;23105;-75
2023/03/02 09:50:13;;;;;;;6.27;5.57;;;23.10;44.60;20.20;101276;;;;579872;244;23078;-78
2023/03/02 09:52:56;;;;;;;7.10;5.07;;;21.90;46.40;19.30;101273;;;;575868;244;24053;-74
2023/03/02 09:55:24;;;;;;;11.10;5.10;;;19.90;49.40;18.50;101270;;;;576448;244;24083;-73
2023/03/02 09:57:53;;;;;;;5.10;4.47;;;19.90;49.40;17.90;101274;;;;576869;244;24049;-74
2023/03/02 10:00:35;;;;;;;5.07;4.40;;;19.40;50.80;17.40;101268;;;;579205;244;24138;-74
2023/03/02 10:03:06;;;;;;;5.60;4.63;;;18.90;51.70;16.80;101264;;;;577378;244;23087;-76
2023/03/02 10:05:39;;;;;;;9.47;4.87;;;18.40;52.80;17.30;101261;;;;577402;244;24049;-73
2023/03/02 10:08:19;;;;;;;9.10;4.97;;;18.70;53.10;18.00;101260;;;;579679;244;24061;-73
2023/03/02 10:11:11;;;;;;;6.50;4.57;;;19.30;52.50;18.50;101262;;;;579194;244;23082;-73
2023/03/02 10:13:41;;;;;;;5.50;4.87;;;19.90;51.70;18.70;101260;;;;579472;244;23121;-76
2023/03/02 10:16:19;;;;;;;5.53;5.03;;;20.20;51.00;18.80;101267;;;;577171;244;23078;-76
2023/03/02 10:18:47;;;;;;;7.53;5.23;;;20.30;51.00;19.10;101263;;;;579557;244;23069;-75
2023/03/02 10:21:38;;;;;;;6.03;5.20;;;20.60;50.60;19.20;101262;;;;576866;244;24066;-75
2023/03/02 10:24:13;;;;;;;7.93;5.40;;;21.10;49.60;19.40;101264;;;;577361;244;24060;-74
2023/03/02 10:26:44;;;;;;;8.93;5.10;;;21.10;49.60;19.00;101259;;;;580502;243;24087;-74
2023/03/02 10:29:18;;;;;;;7.53;4.60;;;21.00;49.90;18.90;101256;;;;589848;243;24048;-73
2023/03/02 10:31:49;;;;;;;8.27;5.83;;;20.90;50.60;18.90;101257;;;;580518;243;24128;-74
2023/03/02 10:34:19;;;;;;;6.67;5.43;;;20.70;50.80;18.70;101253;;;;580309;243;24111;-75
2023/03/02 10:36:46;;;;;;;5.90;5.23;;;20.70;50.80;18.40;101254;;;;579749;244;24102;-75
2023/03/02 10:39:14;;;;;;;8.93;5.43;;;20.50;50.70;17.30;101249;;;;580062;244;23078;-74
2023/03/02 10:41:50;;;;;;;9.40;5.63;;;19.50;51.50;16.10;101251;;;;579995;244;24062;-76
2023/03/02 10:44:25;;;;;;;5.93;4.77;;;17.00;55.50;15.00;101243;;;;588892;243;25125;-75
2023/03/02 10:46:54;;;;;;;12.50;5.20;;;15.90;57.70;14.10;101243;;;;579635;244;25114;-74
2023/03/02 10:49:38;;;;;;;5.77;5.23;;;15.80;57.60;13.40;101245;;;;579748;244;24071;-75
2023/03/02 10:52:22;;;;;;;7.37;4.73;;;15.00;59.80;12.70;101236;;;;577295;244;24119;-76
2023/03/02 10:54:51;;;;;;;18.80;5.40;;;14.20;61.70;12.00;101229;;;;579707;244;24097;-74
2023/03/02 10:57:39;;;;;;;6.87;4.17;;;13.40;64.50;11.30;101230;;;;575730;244;24092;-72
2023/03/02 11:00:16;;;;;;;8.07;4.10;;;12.50;66.40;10.40;101229;;;;579744;244;24080;-74
2023/03/02 11:02:56;;;;;;;7.97;4.67;;;11.50;69.40;9.90;101221;;;;579200;244;24066;-73
2023/03/02 11:05:30;;;;;;;6.70;4.07;;;10.80;72.40;9.30;101225;;;;579491;244;24158;-74
2023/03/02 11:08:04;;;;;;;7.87;4.00;;;9.60;76.70;8.90;101224;;;;579261;244;24130;-74
2023/03/02 11:10:38;;;;;;;5.50;3.63;;;9.60;76.70;8.60;101227;;;;575958;244;24075;-74
2023/03/02 11:13:18;;;;;;;5.53;3.63;;;9.30;79.10;8.30;101223;;;;588109;243;24103;-73